Time;durP1;ratioP1;P1;durP2;ratioP2;P2;SDS_P1;SDS_P2;PMS_P1;PMS_P2;Temp;Humidity;BMP_temperature;BMP_pressure;BME280_temperature;BME280_humidity;BME280_pressure;Samples;Min_cycle;Max_cycle;Signal;HPM_P1;HPM_P2
2023/05/17 00:03:34;;;;;;;8.27;6.27;;;9.10;1.00;;;;;;8334557;28;20286;-71
2023/05/17 00:07:35;;;;;;;8.57;6.43;;;9.10;99.90;;;;;;8301943;28;20182;-71
2023/05/17 00:11:37;;;;;;;8.57;6.43;;;9.00;99.90;;;;;;8320022;28;20212;-72
2023/05/17 00:15:38;;;;;;;10.43;6.37;;;9.00;37.30;;;;;;8322157;28;20183;-72
2023/05/17 00:19:41;;;;;;;9.63;5.77;;;9.00;57.10;;;;;;8333002;28;20209;-72
2023/05/17 00:23:42;;;;;;;13.17;6.83;;;8.90;99.90;;;;;;8316031;28;20211;-73
2023/05/17 00:27:43;;;;;;;7.97;6.13;;;8.80;99.90;;;;;;8320117;28;20186;-72
2023/05/17 00:31:47;;;;;;;13.17;6.00;;;8.80;99.90;;;;;;8318193;28;20183;-72
2023/05/17 00:35:49;;;;;;;9.33;6.10;;;8.70;99.90;;;;;;8330763;28;20264;-71
2023/05/17 00:39:52;;;;;;;11.87;6.07;;;8.60;99.90;;;;;;8298025;28;20220;-71
2023/05/17 00:43:54;;;;;;;10.97;5.33;;;8.50;99.90;;;;;;8332191;28;20206;-62
2023/05/17 00:47:56;;;;;;;7.53;5.03;;;8.50;1.00;;;;;;8331809;28;20202;-63
2023/05/17 00:51:58;;;;;;;10.80;5.67;;;8.40;1.00;;;;;;8331529;28;20179;-63
2023/05/17 00:55:59;;;;;;;11.07;6.23;;;8.40;1.00;;;;;;8319351;28;20224;-63
2023/05/17 01:00:00;;;;;;;9.03;5.77;;;8.40;1.00;;;;;;8314727;28;20185;-62
2023/05/17 01:04:02;;;;;;;5.90;5.30;;;8.20;1.00;;;;;;8317555;28;20251;-63
2023/05/17 01:08:03;;;;;;;7.80;4.30;;;8.10;1.00;;;;;;8318283;28;20293;-64
2023/05/17 01:12:09;;;;;;;6.47;3.73;;;8.00;99.90;;;;;;8320338;28;20238;-64
2023/05/17 01:16:22;;;;;;;8.03;4.03;;;7.90;1.00;;;;;;8317718;28;20280;-65
2023/05/17 01:20:38;;;;;;;9.27;4.00;;;7.80;1.00;;;;;;8313918;28;20243;-75
2023/05/17 01:24:58;;;;;;;7.30;3.73;;;7.70;1.00;;;;;;8329564;28;20216;-68
2023/05/17 01:29:01;;;;;;;8.00;3.87;;;7.60;10.60;;;;;;8325573;28;20206;-65
2023/05/17 01:33:03;;;;;;;7.80;3.97;;;7.60;95.70;;;;;;8294424;28;20194;-64
2023/05/17 01:37:04;;;;;;;7.33;4.80;;;7.50;99.90;;;;;;8316292;28;20218;-64
2023/05/17 01:41:34;;;;;;;8.33;4.60;;;7.40;99.90;;;;;;8316682;28;20175;-64
2023/05/17 01:45:50;;;;;;;7.60;4.47;;;7.30;99.90;;;;;;8309940;28;20210;-65
2023/05/17 01:49:54;;;;;;;7.70;3.43;;;7.20;99.90;;;;;;8330787;28;20177;-63
2023/05/17 01:54:00;;;;;;;9.97;3.47;;;7.10;99.90;;;;;;8314057;28;20281;-63
2023/05/17 01:58:03;;;;;;;6.73;3.60;;;7.10;1.00;;;;;;8312976;28;20191;-63
2023/05/17 02:02:10;;;;;;;5.07;2.93;;;7.10;1.00;;;;;;8325063;28;20205;-64
2023/05/17 02:06:12;;;;;;;4.63;3.00;;;7.00;1.00;;;;;;8316955;28;20186;-63
2023/05/17 02:10:13;;;;;;;6.70;3.23;;;6.90;1.00;;;;;;8314253;28;20198;-63
2023/05/17 02:14:14;;;;;;;8.20;3.30;;;6.80;1.00;;;;;;8325752;28;20193;-63
2023/05/17 02:18:16;;;;;;;5.63;3.10;;;6.70;56.20;;;;;;8308026;28;20225;-64
2023/05/17 02:22:17;;;;;;;3.83;2.60;;;6.60;99.90;;;;;;8317698;28;20203;-64
2023/05/17 02:26:21;;;;;;;7.23;3.10;;;6.50;99.90;;;;;;8325308;28;20186;-63
2023/05/17 02:30:26;;;;;;;4.17;2.67;;;6.40;99.90;;;;;;8318544;28;20187;-63
2023/05/17 02:34:27;;;;;;;7.00;2.67;;;6.30;99.90;;;;;;8308657;28;20190;-62
2023/05/17 02:38:28;;;;;;;6.47;2.60;;;6.20;99.90;;;;;;8319754;28;20205;-63
2023/05/17 02:42:29;;;;;;;4.83;2.83;;;6.10;99.90;;;;;;8316987;28;20202;-64
2023/05/17 02:46:30;;;;;;;5.27;2.87;;;6.00;99.90;;;;;;8298469;28;20188;-64
2023/05/17 02:50:31;;;;;;;8.97;2.77;;;5.90;99.90;;;;;;8326393;28;20182;-62
2023/05/17 02:54:42;;;;;;;2.30;2.10;;;5.80;1.00;;;;;;8319712;28;20198;-67
2023/05/17 02:58:43;;;;;;;5.10;2.93;;;5.70;1.00;;;;;;8322418;28;20193;-63
2023/05/17 03:02:44;;;;;;;8.33;2.57;;;5.70;1.00;;;;;;8335862;28;20222;-63
2023/05/17 03:06:45;;;;;;;4.43;2.77;;;5.70;1.00;;;;;;8319934;28;20189;-63
2023/05/17 03:10:46;;;;;;;6.10;2.43;;;5.70;1.00;;;;;;8318678;28;20249;-64
2023/05/17 03:14:47;;;;;;;6.53;2.37;;;5.70;99.90;;;;;;8317055;28;20186;-63
2023/05/17 03:18:48;;;;;;;5.80;2.80;;;5.70;99.90;;;;;;8335105;28;20189;-66
2023/05/17 03:22:49;;;;;;;7.43;2.30;;;5.70;99.90;;;;;;8315414;28;20219;-66
2023/05/17 03:26:50;;;;;;;5.83;2.10;;;5.80;99.90;;;;;;8312861;28;20217;-67
2023/05/17 03:30:54;;;;;;;5.83;3.03;;;5.90;99.90;;;;;;8332692;28;20178;-67
2023/05/17 03:35:00;;;;;;;5.00;2.70;;;6.00;18.10;;;;;;8331386;28;20255;-67
2023/05/17 03:39:01;;;;;;;7.30;2.63;;;6.00;1.00;;;;;;8321735;28;20198;-67
2023/05/17 03:43:04;;;;;;;4.50;2.50;;;6.10;1.00;;;;;;8321202;28;20213;-67
2023/05/17 03:47:05;;;;;;;3.63;2.00;;;6.10;1.00;;;;;;8301987;28;20205;-66
2023/05/17 03:51:06;;;;;;;10.40;2.23;;;6.20;1.00;;;;;;8329713;28;20191;-68
2023/05/17 03:55:08;;;;;;;5.53;2.40;;;6.20;1.00;;;;;;8317819;28;20280;-69
2023/05/17 03:59:09;;;;;;;3.57;2.50;;;6.20;1.00;;;;;;8319558;28;20201;-67
2023/05/17 04:03:11;;;;;;;9.40;2.67;;;6.30;1.00;;;;;;8332672;28;20217;-68
2023/05/17 04:07:12;;;;;;;6.27;3.03;;;6.40;99.90;;;;;;8334124;28;20293;-67
2023/05/17 04:11:13;;;;;;;5.93;2.50;;;6.40;99.90;;;;;;8320322;28;20194;-67
2023/05/17 04:15:14;;;;;;;5.13;2.70;;;6.60;99.90;;;;;;8330434;28;20240;-68
2023/05/17 04:19:25;;;;;;;6.50;2.53;;;6.70;99.90;;;;;;8317099;28;20221;-68
2023/05/17 04:23:26;;;;;;;8.03;2.47;;;6.90;99.90;;;;;;8315755;28;20316;-67
2023/05/17 04:27:27;;;;;;;4.70;2.33;;;7.10;99.90;;;;;;8318123;28;20190;-68
2023/05/17 04:31:30;;;;;;;5.73;3.40;;;7.40;99.90;;;;;;8316967;28;20207;-66
2023/05/17 04:35:32;;;;;;;4.37;2.50;;;7.70;99.90;;;;;;8331431;28;20217;-67
2023/05/17 04:39:32;;;;;;;5.63;2.70;;;8.00;99.90;;;;;;8314406;28;20189;-68
2023/05/17 04:43:34;;;;;;;7.73;2.77;;;8.00;99.90;;;;;;8318803;28;20206;-67
2023/05/17 04:47:36;;;;;;;7.40;3.20;;;7.90;99.90;;;;;;8309779;28;20217;-68
2023/05/17 04:51:37;;;;;;;9.07;2.70;;;8.00;99.90;;;;;;8329760;28;20258;-68
2023/05/17 04:55:41;;;;;;;4.93;2.87;;;8.10;99.90;;;;;;8328055;28;20304;-68
2023/05/17 04:59:42;;;;;;;7.53;2.70;;;8.10;99.90;;;;;;8311527;28;20285;-68
2023/05/17 05:03:44;;;;;;;8.00;3.37;;;8.10;99.90;;;;;;8316740;28;20217;-68
2023/05/17 05:07:48;;;;;;;5.97;2.70;;;8.10;99.90;;;;;;8316153;28;20186;-68
2023/05/17 05:11:49;;;;;;;5.77;2.77;;;8.20;99.90;;;;;;8330671;28;20193;-69
2023/05/17 05:15:59;;;;;;;5.17;2.53;;;8.20;99.90;;;;;;8314470;28;20240;-69
2023/05/17 05:20:04;;;;;;;6.00;2.87;;;8.40;99.90;;;;;;8315747;28;20182;-67
2023/05/17 05:24:05;;;;;;;5.50;2.50;;;8.50;99.90;;;;;;8311773;28;20214;-69
2023/05/17 05:28:06;;;;;;;7.70;2.83;;;8.60;99.90;;;;;;8326980;28;20185;-68
2023/05/17 05:32:07;;;;;;;8.50;2.87;;;8.70;99.90;;;;;;8332720;28;20170;-70
2023/05/17 05:36:09;;;;;;;10.73;2.73;;;8.70;99.90;;;;;;8312646;28;20194;-68
2023/05/17 05:40:16;;;;;;;8.10;2.97;;;8.70;99.90;;;;;;8315093;28;20185;-70
2023/05/17 05:44:17;;;;;;;7.57;2.57;;;8.80;99.90;;;;;;8315766;28;20225;-69
2023/05/17 05:48:18;;;;;;;8.30;3.20;;;8.80;99.90;;;;;;8321699;28;20182;-68
2023/05/17 05:52:20;;;;;;;5.73;2.13;;;9.00;99.90;;;;;;8326470;28;20189;-67
2023/05/17 05:56:31;;;;;;;8.67;2.17;;;9.00;99.90;;;;;;8336932;28;20209;-68
2023/05/17 06:00:36;;;;;;;5.93;2.23;;;9.10;99.90;;;;;;8334581;28;20233;-69
2023/05/17 06:04:37;;;;;;;9.50;2.80;;;9.10;99.90;;;;;;8336099;28;20241;-68
2023/05/17 06:08:38;;;;;;;10.13;3.27;;;9.30;99.90;;;;;;8318673;28;20182;-69
2023/05/17 06:12:46;;;;;;;7.27;2.63;;;9.40;99.90;;;;;;8321356;28;20197;-69
2023/05/17 06:16:48;;;;;;;5.70;2.33;;;9.40;99.90;;;;;;8302866;28;20197;-69
2023/05/17 06:20:49;;;;;;;7.33;2.73;;;9.40;99.90;;;;;;8337285;28;20190;-68
2023/05/17 06:24:50;;;;;;;7.23;2.63;;;9.50;99.90;;;;;;8334174;28;20214;-65
2023/05/17 06:28:57;;;;;;;11.90;3.30;;;9.50;99.90;;;;;;8339596;28;20204;-70
2023/05/17 06:32:58;;;;;;;8.73;2.90;;;9.20;99.90;;;;;;8315627;28;20182;-69
2023/05/17 06:37:00;;;;;;;6.37;2.40;;;9.10;99.90;;;;;;8335447;28;20182;-69
2023/05/17 06:41:01;;;;;;;12.77;3.33;;;9.10;99.90;;;;;;8317595;28;20213;-68
2023/05/17 06:45:02;;;;;;;6.97;2.57;;;9.20;99.90;;;;;;8319784;28;20206;-70
2023/05/17 06:49:03;;;;;;;8.70;3.00;;;9.20;99.90;;;;;;8333107;28;20193;-67
2023/05/17 06:53:04;;;;;;;7.57;3.30;;;9.40;99.90;;;;;;8323032;28;20197;-67
2023/05/17 06:57:06;;;;;;;10.73;3.40;;;9.30;99.90;;;;;;8332870;28;20190;-67
2023/05/17 07:01:06;;;;;;;9.83;2.70;;;9.40;99.90;;;;;;8332106;28;20241;-67
2023/05/17 07:05:08;;;;;;;13.83;3.57;;;9.60;99.90;;;;;;8338223;28;20216;-67
2023/05/17 07:09:09;;;;;;;12.40;3.97;;;9.70;99.90;;;;;;8317834;28;20222;-68
2023/05/17 07:13:11;;;;;;;8.83;3.30;;;9.90;99.90;;;;;;8319320;28;20194;-66
2023/05/17 07:17:12;;;;;;;11.20;3.03;;;10.10;99.90;;;;;;8327847;28;20216;-66
2023/05/17 07:21:13;;;;;;;12.57;3.50;;;10.20;99.90;;;;;;8333082;28;20197;-68
2023/05/17 07:25:14;;;;;;;9.60;3.30;;;10.40;99.90;;;;;;8320936;28;20242;-68
2023/05/17 07:29:18;;;;;;;8.97;3.20;;;10.50;99.90;;;;;;8316646;28;20229;-68
2023/05/17 07:33:19;;;;;;;7.13;3.40;;;10.60;99.90;;;;;;8335501;28;20238;-66
2023/05/17 07:37:20;;;;;;;10.10;3.67;;;10.70;99.90;;;;;;8318454;28;20188;-67
2023/05/17 07:41:22;;;;;;;8.10;2.87;;;10.80;99.90;;;;;;8332938;28;20196;-69
2023/05/17 07:45:23;;;;;;;6.27;2.33;;;11.00;93.40;;;;;;8316736;28;20212;-69
2023/05/17 07:49:26;;;;;;;11.23;2.80;;;10.80;84.60;;;;;;8333033;28;20192;-69
2023/05/17 07:53:33;;;;;;;11.70;3.17;;;10.90;99.70;;;;;;8320882;28;20193;-70
2023/05/17 07:57:34;;;;;;;7.23;2.50;;;11.30;82.10;;;;;;8333149;28;20223;-68
2023/05/17 08:01:34;;;;;;;8.20;3.03;;;11.30;83.60;;;;;;8312517;28;20201;-68
2023/05/17 08:05:35;;;;;;;7.93;2.80;;;11.20;68.20;;;;;;8313907;28;20224;-69
2023/05/17 08:09:36;;;;;;;3.93;2.40;;;11.20;86.10;;;;;;8332008;28;20304;-68
2023/05/17 08:13:37;;;;;;;9.73;3.17;;;11.40;95.00;;;;;;8314078;28;20190;-68
2023/05/17 08:17:38;;;;;;;10.40;3.17;;;11.60;85.40;;;;;;8332470;28;20214;-67
2023/05/17 08:21:40;;;;;;;7.97;2.80;;;11.60;75.40;;;;;;8335913;28;20188;-67
2023/05/17 08:25:45;;;;;;;7.50;3.23;;;11.40;59.10;;;;;;8329968;28;20217;-67
2023/05/17 08:29:46;;;;;;;9.03;3.70;;;11.70;91.30;;;;;;8317686;28;20247;-68
2023/05/17 08:33:47;;;;;;;8.80;3.20;;;11.90;85.90;;;;;;8317541;28;20238;-70
2023/05/17 08:37:51;;;;;;;8.30;3.10;;;12.10;36.80;;;;;;8331720;28;20211;-66
2023/05/17 08:41:52;;;;;;;7.20;3.00;;;11.90;46.40;;;;;;8308190;28;20193;-68
2023/05/17 08:45:56;;;;;;;8.23;2.70;;;12.10;60.10;;;;;;8319242;28;20334;-69
2023/05/17 08:50:03;;;;;;;7.63;3.10;;;12.30;43.00;;;;;;8326625;28;20185;-69
2023/05/17 08:54:04;;;;;;;5.80;2.60;;;12.40;22.90;;;;;;8320829;28;20274;-68
2023/05/17 08:58:06;;;;;;;12.40;2.97;;;12.30;17.00;;;;;;8328953;28;20223;-67
2023/05/17 09:02:10;;;;;;;7.60;2.57;;;12.20;22.40;;;;;;8329591;28;20273;-69
2023/05/17 09:06:12;;;;;;;6.30;2.33;;;12.40;21.70;;;;;;8311345;28;20252;-68
2023/05/17 09:10:16;;;;;;;7.60;2.37;;;12.20;9.10;;;;;;8319535;28;20198;-68
2023/05/17 09:14:17;;;;;;;7.30;2.60;;;12.10;15.40;;;;;;8311428;28;20193;-71
2023/05/17 09:18:18;;;;;;;4.93;2.20;;;12.10;1.00;;;;;;8316447;28;20190;-71
2023/05/17 09:22:22;;;;;;;6.23;2.33;;;12.00;10.90;;;;;;8318523;28;20200;-69
2023/05/17 09:26:24;;;;;;;6.20;2.23;;;12.10;3.40;;;;;;8314733;28;20191;-70
2023/05/17 09:30:29;;;;;;;5.93;1.90;;;12.30;1.00;;;;;;8316840;28;20190;-70
2023/05/17 09:34:30;;;;;;;3.93;2.23;;;12.30;1.00;;;;;;8315783;28;20195;-73
2023/05/17 09:38:31;;;;;;;5.60;1.70;;;12.30;1.00;;;;;;8318260;28;20186;-70
2023/05/17 09:42:38;;;;;;;7.07;2.53;;;12.50;1.00;;;;;;8332209;28;20217;-74
2023/05/17 09:46:48;;;;;;;6.07;2.03;;;12.60;1.00;;;;;;8333910;28;20177;-72
2023/05/17 09:50:51;;;;;;;5.53;1.77;;;12.80;1.00;;;;;;8330042;28;20299;-74
2023/05/17 09:54:56;;;;;;;4.27;2.17;;;12.60;1.00;;;;;;8333249;28;20188;-69
2023/05/17 09:59:00;;;;;;;3.80;1.67;;;12.30;1.00;;;;;;8321849;28;20285;-72
2023/05/17 10:03:03;;;;;;;3.73;1.53;;;12.40;1.00;;;;;;8333775;28;20206;-72
2023/05/17 10:07:07;;;;;;;5.10;2.30;;;12.60;1.00;;;;;;8333404;28;20196;-68
2023/05/17 10:11:09;;;;;;;5.40;1.60;;;12.90;1.00;;;;;;8316062;28;20305;-69
2023/05/17 10:15:11;;;;;;;3.83;1.67;;;12.80;1.00;;;;;;8329753;28;20232;-71
2023/05/17 10:19:13;;;;;;;3.80;1.70;;;12.60;1.00;;;;;;8320221;28;20333;-72
2023/05/17 10:23:15;;;;;;;5.30;2.30;;;12.90;1.00;;;;;;8331778;28;20209;-69
2023/05/17 10:27:16;;;;;;;6.13;2.13;;;13.00;1.00;;;;;;8318921;28;20197;-71
2023/05/17 10:31:18;;;;;;;3.70;1.90;;;12.80;1.00;;;;;;8315936;28;20190;-72
2023/05/17 10:35:20;;;;;;;5.27;2.10;;;13.10;1.00;;;;;;8322016;28;20245;-71
2023/05/17 10:39:22;;;;;;;6.63;2.30;;;13.10;1.00;;;;;;8324603;28;20186;-71
2023/05/17 10:43:25;;;;;;;4.40;2.30;;;12.90;1.00;;;;;;8337447;28;20202;-70
2023/05/17 10:47:33;;;;;;;7.33;2.07;;;12.90;1.00;;;;;;8316612;28;20183;-72
2023/05/17 10:51:36;;;;;;;4.87;2.37;;;13.30;1.00;;;;;;8326519;28;20194;-71
2023/05/17 10:55:46;;;;;;;4.03;2.20;;;13.50;1.00;;;;;;8320492;28;20194;-70
2023/05/17 10:59:58;;;;;;;4.20;1.93;;;13.60;1.00;;;;;;8335331;28;20210;-70
2023/05/17 11:04:21;;;;;;;5.13;2.53;;;13.60;1.00;;;;;;8322262;28;20228;-71
2023/05/17 11:08:22;;;;;;;7.70;2.53;;;13.40;1.00;;;;;;8322914;28;20285;-71
2023/05/17 11:12:41;;;;;;;6.33;2.33;;;13.20;1.00;;;;;;8334952;28;20194;-71
2023/05/17 11:16:46;;;;;;;7.00;2.77;;;13.10;1.00;;;;;;8334866;28;20187;-71
2023/05/17 11:21:06;;;;;;;6.70;2.63;;;13.50;1.00;;;;;;8318407;28;20185;-71
2023/05/17 11:25:14;;;;;;;6.40;2.30;;;14.10;1.00;;;;;;8320111;28;20218;-72
2023/05/17 11:29:16;;;;;;;8.97;2.60;;;14.50;1.00;;;;;;8324648;28;20268;-68
2023/05/17 11:33:21;;;;;;;5.80;2.97;;;14.70;1.00;;;;;;8317682;28;20193;-71
2023/05/17 11:37:27;;;;;;;7.20;2.87;;;14.70;1.00;;;;;;8322826;28;20281;-70
2023/05/17 11:41:28;;;;;;;7.13;2.70;;;14.60;1.00;;;;;;8330808;28;20295;-68
2023/05/17 11:45:41;;;;;;;5.13;2.57;;;14.20;1.00;;;;;;8332667;28;20220;-68
2023/05/17 11:49:42;;;;;;;8.23;3.00;;;13.90;1.00;;;;;;8313586;28;20300;-73
2023/05/17 11:53:43;;;;;;;9.40;2.97;;;14.00;1.00;;;;;;8322646;28;20204;-70
2023/05/17 11:57:46;;;;;;;5.83;2.47;;;14.50;1.00;;;;;;8322713;28;20222;-70
2023/05/17 12:01:52;;;;;;;6.77;2.40;;;14.60;1.00;;;;;;8325597;28;20186;-68
2023/05/17 12:06:08;;;;;;;4.43;2.40;;;14.10;1.00;;;;;;8336420;28;20214;-71
2023/05/17 12:10:12;;;;;;;6.07;2.53;;;13.90;1.00;;;;;;8330407;28;20205;-69
2023/05/17 12:14:20;;;;;;;5.77;2.63;;;14.10;1.00;;;;;;8315412;28;20305;-70
2023/05/17 12:18:22;;;;;;;6.20;2.77;;;14.50;1.00;;;;;;8318067;28;20194;-70
2023/05/17 12:22:23;;;;;;;5.30;2.20;;;14.60;1.00;;;;;;8320212;28;20210;-70
2023/05/17 12:26:25;;;;;;;8.40;2.13;;;14.60;1.00;;;;;;8320073;28;20276;-70
2023/05/17 12:30:28;;;;;;;8.63;2.33;;;14.40;1.00;;;;;;8330392;28;20193;-72
2023/05/17 12:34:32;;;;;;;7.17;2.10;;;14.30;1.00;;;;;;8330865;28;20218;-73
2023/05/17 12:38:35;;;;;;;6.33;2.10;;;14.20;1.00;;;;;;8320452;28;20195;-70
2023/05/17 12:42:36;;;;;;;5.43;2.07;;;14.50;1.00;;;;;;8320549;28;20210;-72
2023/05/17 12:46:40;;;;;;;6.90;2.00;;;14.50;1.00;;;;;;8314859;28;20193;-68
2023/05/17 12:50:46;;;;;;;6.00;1.97;;;14.70;1.00;;;;;;8321000;28;20198;-71
2023/05/17 12:54:49;;;;;;;5.07;1.80;;;14.40;1.00;;;;;;8316081;28;20205;-71
2023/05/17 12:59:15;;;;;;;6.57;2.30;;;14.70;1.00;;;;;;8305272;28;20291;-68
2023/05/17 13:03:19;;;;;;;4.93;1.97;;;15.30;1.00;;;;;;8321537;28;20209;-69
2023/05/17 13:07:24;;;;;;;3.50;1.50;;;15.60;1.00;;;;;;8314286;28;20192;-67
2023/05/17 13:11:27;;;;;;;4.33;2.20;;;15.20;1.00;;;;;;8313761;28;20197;-70
2023/05/17 13:15:30;;;;;;;4.90;1.53;;;15.10;1.00;;;;;;8316145;28;20193;-71
2023/05/17 13:19:31;;;;;;;6.27;1.97;;;15.00;1.00;;;;;;8319926;28;20190;-68
2023/05/17 13:23:45;;;;;;;6.70;2.13;;;15.10;1.00;;;;;;8328098;28;20292;-69
2023/05/17 13:27:48;;;;;;;7.50;2.20;;;15.40;1.00;;;;;;8318599;28;20197;-69
2023/05/17 13:31:54;;;;;;;9.73;2.50;;;15.20;1.00;;;;;;8315835;28;20194;-74
2023/05/17 13:35:58;;;;;;;6.47;2.23;;;15.20;1.00;;;;;;8330562;28;20190;-71
2023/05/17 13:39:59;;;;;;;6.23;1.87;;;15.20;1.00;;;;;;8332563;28;20234;-71
2023/05/17 13:44:03;;;;;;;7.53;2.03;;;15.30;1.00;;;;;;8330153;28;20221;-70
2023/05/17 13:48:04;;;;;;;4.83;1.90;;;15.10;1.00;;;;;;8329848;28;20300;-71
2023/05/17 13:52:08;;;;;;;5.77;2.00;;;14.90;1.00;;;;;;8329724;28;20201;-70
2023/05/17 13:56:09;;;;;;;6.10;1.93;;;15.20;1.00;;;;;;8314626;28;20198;-71
2023/05/17 14:00:11;;;;;;;8.03;1.90;;;15.40;1.00;;;;;;8332110;28;20264;-70
2023/05/17 14:04:14;;;;;;;5.17;2.00;;;15.30;1.00;;;;;;8314449;28;20213;-70
2023/05/17 14:08:16;;;;;;;7.33;2.13;;;15.10;1.00;;;;;;8334389;28;20273;-65
2023/05/17 14:12:17;;;;;;;5.60;1.80;;;15.00;1.00;;;;;;8337141;28;20197;-71
2023/05/17 14:16:18;;;;;;;7.80;1.70;;;15.00;1.00;;;;;;8324343;28;20189;-71
2023/05/17 14:20:19;;;;;;;5.70;1.77;;;14.90;1.00;;;;;;8332676;28;20193;-68
2023/05/17 14:24:20;;;;;;;5.27;1.83;;;14.80;1.00;;;;;;8321826;28;20226;-69
2023/05/17 14:28:21;;;;;;;5.30;1.67;;;14.80;1.00;;;;;;8335442;28;20193;-70
2023/05/17 14:32:27;;;;;;;5.53;1.40;;;14.90;1.00;;;;;;8320924;28;20182;-70
2023/05/17 14:36:28;;;;;;;3.70;1.50;;;15.10;1.00;;;;;;8338766;28;20186;-72
2023/05/17 14:40:30;;;;;;;6.33;2.03;;;15.10;1.00;;;;;;8335020;28;20183;-71
2023/05/17 14:44:33;;;;;;;7.10;1.67;;;15.10;1.00;;;;;;8316722;28;20240;-69
2023/05/17 14:48:37;;;;;;;5.87;1.97;;;14.80;1.00;;;;;;8320845;28;20252;-69
2023/05/17 14:52:38;;;;;;;7.37;2.93;;;14.70;1.00;;;;;;8338447;28;20196;-68
2023/05/17 14:56:40;;;;;;;8.87;2.63;;;14.60;1.00;;;;;;8318599;28;20190;-69
2023/05/17 15:00:46;;;;;;;4.87;1.63;;;14.60;1.00;;;;;;8322917;28;20332;-71
2023/05/17 15:04:47;;;;;;;7.13;3.17;;;14.60;1.00;;;;;;8324329;28;20222;-69
2023/05/17 15:08:48;;;;;;;4.83;1.97;;;14.60;1.00;;;;;;8339741;28;20284;-70
2023/05/17 15:12:49;;;;;;;4.53;1.87;;;14.60;1.00;;;;;;8318124;28;20193;-68
2023/05/17 15:16:55;;;;;;;4.47;1.50;;;14.60;1.00;;;;;;8322478;28;20194;-68
2023/05/17 15:21:01;;;;;;;6.00;1.40;;;14.60;1.00;;;;;;8318252;28;20200;-69
2023/05/17 15:25:06;;;;;;;4.93;1.43;;;14.40;1.00;;;;;;8335704;28;20329;-69
2023/05/17 15:29:07;;;;;;;5.33;1.43;;;14.60;1.00;;;;;;8319130;28;20272;-70
2023/05/17 15:33:08;;;;;;;5.03;1.83;;;14.50;1.00;;;;;;8321227;28;20190;-70
2023/05/17 15:37:09;;;;;;;4.03;1.30;;;14.50;1.00;;;;;;8334657;28;20185;-71
2023/05/17 15:41:13;;;;;;;5.83;1.90;;;14.30;1.00;;;;;;8324906;28;20194;-70
2023/05/17 15:45:14;;;;;;;4.13;1.50;;;14.40;1.00;;;;;;8323449;28;20315;-70
2023/05/17 15:49:15;;;;;;;5.07;1.53;;;14.40;1.00;;;;;;8336516;28;20194;-70
2023/05/17 15:53:16;;;;;;;4.53;1.60;;;14.30;1.00;;;;;;8317266;28;20212;-69
2023/05/17 15:57:17;;;;;;;4.70;1.73;;;14.20;1.00;;;;;;8336404;28;20204;-71
2023/05/17 16:01:19;;;;;;;4.33;1.80;;;14.30;1.00;;;;;;8325756;28;20198;-69
2023/05/17 16:05:32;;;;;;;3.30;1.37;;;14.40;1.00;;;;;;8320254;28;20218;-71
2023/05/17 16:09:33;;;;;;;6.57;1.70;;;14.30;1.00;;;;;;8319622;28;20289;-70
2023/05/17 16:13:34;;;;;;;6.30;1.30;;;14.10;1.00;;;;;;8332660;28;20193;-70
2023/05/17 16:17:35;;;;;;;4.70;2.00;;;14.10;1.00;;;;;;8323270;28;20193;-70
2023/05/17 16:21:36;;;;;;;6.13;2.73;;;14.10;1.00;;;;;;8335828;28;20191;-69
2023/05/17 16:25:37;;;;;;;7.20;2.07;;;14.20;1.00;;;;;;8322895;28;20243;-70
2023/05/17 16:29:38;;;;;;;4.90;1.77;;;14.20;1.00;;;;;;8339291;28;20190;-70
2023/05/17 16:33:54;;;;;;;8.30;1.70;;;14.20;1.00;;;;;;8428652;27;20586;-70
2023/05/17 16:37:58;;;;;;;7.43;1.90;;;14.20;1.00;;;;;;8429473;28;20190;-70
2023/05/17 16:42:02;;;;;;;5.23;1.47;;;14.00;1.00;;;;;;8446323;27;20188;-69
2023/05/17 16:46:03;;;;;;;5.23;1.60;;;14.00;1.00;;;;;;8430723;27;20226;-70
2023/05/17 16:50:05;;;;;;;4.20;1.53;;;14.00;1.00;;;;;;8432889;28;20195;-67
2023/05/17 16:54:06;;;;;;;3.20;1.43;;;14.00;1.00;;;;;;8441666;27;20205;-69
2023/05/17 16:58:07;;;;;;;5.17;2.10;;;13.90;1.00;;;;;;8429134;28;20287;-70
2023/05/17 17:02:08;;;;;;;5.83;1.77;;;13.80;1.00;;;;;;8445723;27;20196;-70
2023/05/17 17:06:10;;;;;;;4.40;1.73;;;13.90;1.00;;;;;;8429449;28;20189;-70
2023/05/17 17:10:10;;;;;;;6.73;2.50;;;13.80;1.00;;;;;;8428006;28;20216;-71
2023/05/17 17:14:12;;;;;;;7.47;2.07;;;13.70;1.00;;;;;;8431743;28;20176;-69
2023/05/17 17:18:13;;;;;;;2.87;1.63;;;13.70;1.00;;;;;;8433756;28;20299;-71
2023/05/17 17:22:15;;;;;;;6.17;1.80;;;13.60;1.00;;;;;;8428828;28;20184;-70
2023/05/17 17:26:16;;;;;;;4.63;1.57;;;13.60;1.00;;;;;;8433759;28;20227;-69
2023/05/17 17:30:17;;;;;;;3.57;1.70;;;13.60;1.00;;;;;;8425875;28;20310;-72
2023/05/17 17:34:21;;;;;;;5.17;1.60;;;13.60;1.00;;;;;;8430152;28;20210;-71
2023/05/17 17:38:22;;;;;;;5.33;1.97;;;13.50;1.00;;;;;;8421728;28;20191;-70
2023/05/17 17:42:23;;;;;;;5.67;1.90;;;13.30;1.00;;;;;;8418090;28;20181;-71
2023/05/17 17:46:24;;;;;;;6.13;2.10;;;13.20;1.00;;;;;;8405345;28;20193;-70
2023/05/17 17:50:25;;;;;;;6.83;2.30;;;13.20;1.00;;;;;;8399604;28;20242;-70
2023/05/17 17:54:26;;;;;;;5.30;2.40;;;13.10;1.00;;;;;;8404454;28;20185;-70
2023/05/17 17:58:26;;;;;;;4.73;1.80;;;13.00;1.00;;;;;;8404272;28;20215;-70
2023/05/17 18:02:31;;;;;;;4.67;2.00;;;12.90;1.00;;;;;;8402099;28;20208;-71
2023/05/17 18:06:31;;;;;;;3.80;2.10;;;12.80;1.00;;;;;;8397620;28;20182;-70
2023/05/17 18:10:33;;;;;;;6.00;2.20;;;12.80;1.00;;;;;;8403223;28;20358;-70
2023/05/17 18:14:33;;;;;;;3.60;1.80;;;12.70;1.00;;;;;;8407889;28;20288;-70
2023/05/17 18:18:39;;;;;;;3.27;2.03;;;12.50;1.00;;;;;;8403512;28;20188;-70
2023/05/17 18:22:40;;;;;;;4.07;1.93;;;12.30;1.00;;;;;;8405502;28;20196;-70
2023/05/17 18:26:41;;;;;;;3.53;1.73;;;12.00;1.00;;;;;;8400428;28;20189;-70
2023/05/17 18:30:45;;;;;;;4.30;1.30;;;11.90;5.50;;;;;;8404517;28;20208;-70
2023/05/17 18:34:46;;;;;;;5.17;1.73;;;11.80;21.70;;;;;;8404980;28;20191;-71
2023/05/17 18:38:51;;;;;;;3.43;1.50;;;11.70;27.30;;;;;;8407152;28;20277;-70
2023/05/17 18:42:54;;;;;;;3.27;1.50;;;11.50;41.40;;;;;;8384705;28;20203;-72
2023/05/17 18:46:55;;;;;;;3.67;1.60;;;11.20;61.70;;;;;;8399326;28;20197;-71
2023/05/17 18:50:58;;;;;;;2.37;1.13;;;10.90;90.10;;;;;;8400462;28;20195;-71
2023/05/17 18:54:59;;;;;;;2.80;1.40;;;10.70;99.90;;;;;;8399152;28;20234;-72
2023/05/17 18:59:07;;;;;;;2.90;1.40;;;10.50;99.90;;;;;;8405725;28;20191;-71
2023/05/17 19:03:08;;;;;;;8.83;3.93;;;10.40;99.90;;;;;;8404646;28;20225;-71
2023/05/17 19:07:12;;;;;;;7.10;3.10;;;10.20;99.90;;;;;;8400307;28;20199;-69
2023/05/17 19:11:15;;;;;;;6.53;2.30;;;10.10;99.90;;;;;;8403029;28;20292;-69
2023/05/17 19:15:16;;;;;;;4.37;1.63;;;10.00;99.90;;;;;;8385897;28;20289;-70
2023/05/17 19:19:24;;;;;;;3.63;1.77;;;9.80;99.90;;;;;;8384226;28;20196;-73
2023/05/17 19:23:26;;;;;;;2.53;1.70;;;9.70;99.90;;;;;;8396398;28;20194;-72
2023/05/17 19:27:27;;;;;;;3.37;1.83;;;9.60;99.90;;;;;;8399249;28;20197;-71
2023/05/17 19:31:28;;;;;;;2.27;1.87;;;9.40;99.90;;;;;;8396315;28;20217;-70
2023/05/17 19:35:29;;;;;;;2.57;1.80;;;9.30;99.90;;;;;;8405215;28;20196;-70
2023/05/17 19:39:31;;;;;;;3.37;1.80;;;9.20;99.90;;;;;;8399224;28;20188;-69
2023/05/17 19:43:34;;;;;;;3.50;1.77;;;9.10;99.90;;;;;;8399642;28;20200;-69
2023/05/17 19:47:35;;;;;;;2.67;1.80;;;9.00;99.90;;;;;;8394189;28;20198;-68
2023/05/17 19:51:36;;;;;;;4.43;1.87;;;8.90;99.90;;;;;;8381680;28;20240;-70
2023/05/17 19:55:41;;;;;;;3.50;2.00;;;8.80;99.90;;;;;;8400797;28;20181;-70
2023/05/17 19:59:42;;;;;;;3.87;2.13;;;8.60;99.90;;;;;;8399696;28;20200;-70
2023/05/17 20:03:43;;;;;;;4.77;2.10;;;8.60;99.90;;;;;;8396208;28;20209;-69
2023/05/17 20:07:44;;;;;;;4.13;2.30;;;8.50;99.90;;;;;;8394609;28;20193;-69
2023/05/17 20:11:46;;;;;;;6.60;2.40;;;8.40;99.90;;;;;;8397299;28;20208;-70
2023/05/17 20:15:47;;;;;;;2.90;2.27;;;8.40;1.00;;;;;;8396300;28;20193;-71
2023/05/17 20:19:48;;;;;;;6.87;2.67;;;8.40;1.00;;;;;;8396099;28;20185;-71
2023/05/17 20:23:55;;;;;;;5.10;2.67;;;8.30;1.00;;;;;;8402728;28;20193;-70
2023/05/17 20:27:56;;;;;;;4.77;2.30;;;8.20;1.00;;;;;;8395052;28;20196;-69
2023/05/17 20:31:57;;;;;;;4.70;2.40;;;8.10;1.00;;;;;;8401310;28;20220;-71
2023/05/17 20:35:58;;;;;;;4.23;2.80;;;8.00;1.00;;;;;;8396700;28;20227;-69
2023/05/17 20:39:59;;;;;;;5.67;2.87;;;7.80;1.00;;;;;;8398020;28;20185;-70
2023/05/17 20:44:03;;;;;;;5.20;3.10;;;7.70;1.00;;;;;;8399056;28;20239;-70
2023/05/17 20:48:04;;;;;;;5.70;2.77;;;7.60;1.00;;;;;;8398032;28;20199;-70
2023/05/17 20:52:05;;;;;;;5.33;3.10;;;7.50;1.00;;;;;;8394648;28;20217;-69
2023/05/17 20:56:07;;;;;;;6.00;3.40;;;7.40;1.00;;;;;;8395797;28;20212;-70
2023/05/17 21:00:10;;;;;;;6.93;3.43;;;7.30;1.00;;;;;;8397549;28;20225;-70
2023/05/17 21:04:16;;;;;;;4.50;3.50;;;7.10;5.50;;;;;;8397073;28;20235;-68
2023/05/17 21:08:20;;;;;;;6.17;3.33;;;7.00;44.00;;;;;;8394539;28;20197;-70
2023/05/17 21:12:21;;;;;;;5.20;3.70;;;6.90;88.10;;;;;;8401520;28;20220;-70
2023/05/17 21:16:23;;;;;;;4.27;2.67;;;6.80;99.90;;;;;;8398930;28;20184;-70
2023/05/17 21:20:24;;;;;;;6.67;3.20;;;6.80;99.90;;;;;;8399071;28;20253;-69